Lady Duvera — PB2875 — position and weather

sailwx.info

Track history (hours):
 
Tides and Currents Weather Stations Pressure Air Temp Water Temp Dewpoint Dewpoint Depression Visibility Wind Speed Wind Dir Waves Ship Positions

Lady Duvera

Last reported at 2016-Jul-27 16:14 UTC. Time now 2016-Jul-27 17:16 UTC.
Position N 43°02' E 008°11'.

Length 44 m.

MMSI: 244650177.

Date/timePositionNaut miles runAvg speedWind from/ knotsBaromVisibWave heightAir tempDewpointWater temp
2016-Jul-27 16:14N 43°02' E 008°11'37 4.1
2016-Jul-27 07:19N 42°34' E 008°44'  
2016-Jul-21 21:28N 42°35' E 009°56'21 9.2
2016-Jul-21 19:13N 42°49' E 010°16'2 0.4
2016-Jul-21 13:33N 42°51' E 010°15'2412.1
2016-Jul-21 11:31N 43°15' E 010°09'1212.1
2016-Jul-21 10:33N 43°27' E 010°07'1211.8
2016-Jul-21 09:33N 43°38' E 010°04'1111.1
2016-Jul-21 08:33N 43°49' E 009°60'1211.8
2016-Jul-21 07:33N 44°00' E 009°56'5 4.4
2016-Jul-21 06:32N 44°03' E 009°51'0 0.0
2016-Jul-21 05:29N 44°03' E 009°51'0 0.0
2016-Jul-21 04:32N 44°03' E 009°51'0 0.0
2016-Jul-21 03:32N 44°03' E 009°51'0 0.0
2016-Jul-21 02:32N 44°03' E 009°51'0 0.0
2016-Jul-21 01:32N 44°03' E 009°51'0 0.0
2016-Jul-21 00:32N 44°03' E 009°51'0 0.0
2016-Jul-20 23:32N 44°03' E 009°51'0 0.0
2016-Jul-20 22:29N 44°03' E 009°51'0 0.0
2016-Jul-20 21:32N 44°03' E 009°51'0 0.0
2016-Jul-20 20:32N 44°03' E 009°51'0 0.0
2016-Jul-20 19:32N 44°03' E 009°51'0 0.0
2016-Jul-20 18:32N 44°03' E 009°51'0 0.0
2016-Jul-20 17:32N 44°03' E 009°51'0 0.0
2016-Jul-20 16:29N 44°03' E 009°51'0 0.0
2016-Jul-20 15:32N 44°03' E 009°51'0 0.0
2016-Jul-20 14:32N 44°03' E 009°51'1 0.9
2016-Jul-20 13:33N 44°03' E 009°52'8 7.9
2016-Jul-20 12:33N 44°05' E 009°41'1010.0
2016-Jul-20 11:33N 44°11' E 009°31'10 9.8
2016-Jul-20 10:32N 44°17' E 009°19'4 0.2
2016-Jul-19 13:32N 44°19' E 009°13'0 0.1
2016-Jul-19 10:20N 44°19' E 009°13'0 0.0
2016-Jul-19 03:32N 44°19' E 009°13'0 0.0
2016-Jul-19 00:26N 44°19' E 009°13'0 0.0
2016-Jul-18 22:20N 44°19' E 009°13'0 0.0
2016-Jul-18 20:20N 44°19' E 009°13'0 0.0
2016-Jul-18 08:08N 44°19' E 009°13'0 0.0
2016-Jul-18 07:32N 44°19' E 009°13'0 0.0
2016-Jul-18 06:24N 44°19' E 009°13'6 7.3
2016-Jul-18 05:33N 44°15' E 009°06'1111.1
2016-Jul-18 04:33N 44°10' E 008°53'1111.0
2016-Jul-18 03:33N 44°04' E 008°39'1110.9
2016-Jul-18 02:33N 43°58' E 008°27'4610.9
2016-Jul-17 22:17N 43°42' E 007°26'4 1.4
2016-Jul-17 19:16N 43°42' E 007°20'0 0.0
2016-Jul-17 18:31N 43°42' E 007°20'3 3.0
2016-Jul-17 17:34N 43°39' E 007°19'1111.3
2016-Jul-17 16:33N 43°32' E 007°07'  
Track history (hours):
 
Tides and Currents Weather Stations Pressure Air Temp Water Temp Dewpoint Dewpoint Depression Visibility Wind Speed Wind Dir Waves Ship Positions

Lady Duvera

Last reported at 2016-Jul-27 16:14 UTC. Time now 2016-Jul-27 17:16 UTC.
Position N 43°02' E 008°11'.

Length 44 m.

MMSI: 244650177.

Date/timePositionNaut miles runAvg speedWind from/ knotsBaromVisibWave heightAir tempDewpointWater temp
2016-Jul-27 16:14N 43°02' E 008°11'37 4.1
2016-Jul-27 07:19N 42°34' E 008°44'  
2016-Jul-21 21:28N 42°35' E 009°56'21 9.2
2016-Jul-21 19:13N 42°49' E 010°16'2 0.4
2016-Jul-21 13:33N 42°51' E 010°15'2412.1
2016-Jul-21 11:31N 43°15' E 010°09'1212.1
2016-Jul-21 10:33N 43°27' E 010°07'1211.8
2016-Jul-21 09:33N 43°38' E 010°04'1111.1
2016-Jul-21 08:33N 43°49' E 009°60'1211.8
2016-Jul-21 07:33N 44°00' E 009°56'5 4.4
2016-Jul-21 06:32N 44°03' E 009°51'0 0.0
2016-Jul-21 05:29N 44°03' E 009°51'0 0.0
2016-Jul-21 04:32N 44°03' E 009°51'0 0.0
2016-Jul-21 03:32N 44°03' E 009°51'0 0.0
2016-Jul-21 02:32N 44°03' E 009°51'0 0.0
2016-Jul-21 01:32N 44°03' E 009°51'0 0.0
2016-Jul-21 00:32N 44°03' E 009°51'0 0.0
2016-Jul-20 23:32N 44°03' E 009°51'0 0.0
2016-Jul-20 22:29N 44°03' E 009°51'0 0.0
2016-Jul-20 21:32N 44°03' E 009°51'0 0.0
2016-Jul-20 20:32N 44°03' E 009°51'0 0.0
2016-Jul-20 19:32N 44°03' E 009°51'0 0.0
2016-Jul-20 18:32N 44°03' E 009°51'0 0.0
2016-Jul-20 17:32N 44°03' E 009°51'0 0.0
2016-Jul-20 16:29N 44°03' E 009°51'0 0.0
2016-Jul-20 15:32N 44°03' E 009°51'0 0.0
2016-Jul-20 14:32N 44°03' E 009°51'1 0.9
2016-Jul-20 13:33N 44°03' E 009°52'8 7.9
2016-Jul-20 12:33N 44°05' E 009°41'1010.0
2016-Jul-20 11:33N 44°11' E 009°31'10 9.8
2016-Jul-20 10:32N 44°17' E 009°19'4 0.2
2016-Jul-19 13:32N 44°19' E 009°13'0 0.1
2016-Jul-19 10:20N 44°19' E 009°13'0 0.0
2016-Jul-19 03:32N 44°19' E 009°13'0 0.0
2016-Jul-19 00:26N 44°19' E 009°13'0 0.0
2016-Jul-18 22:20N 44°19' E 009°13'0 0.0
2016-Jul-18 20:20N 44°19' E 009°13'0 0.0
2016-Jul-18 08:08N 44°19' E 009°13'0 0.0
2016-Jul-18 07:32N 44°19' E 009°13'0 0.0
2016-Jul-18 06:24N 44°19' E 009°13'6 7.3
2016-Jul-18 05:33N 44°15' E 009°06'1111.1
2016-Jul-18 04:33N 44°10' E 008°53'1111.0
2016-Jul-18 03:33N 44°04' E 008°39'1110.9
2016-Jul-18 02:33N 43°58' E 008°27'4610.9
2016-Jul-17 22:17N 43°42' E 007°26'4 1.4
2016-Jul-17 19:16N 43°42' E 007°20'0 0.0
2016-Jul-17 18:31N 43°42' E 007°20'3 3.0
2016-Jul-17 17:34N 43°39' E 007°19'1111.3
2016-Jul-17 16:33N 43°32' E 007°07'  

Dump ship's entire track history